createdAt,value
2023-05-14T00:00:02.957Z,1009.99
2023-05-14T00:01:03.855Z,1009.98
2023-05-14T00:02:04.719Z,1009.97
2023-05-14T00:03:05.705Z,1009.96
2023-05-14T00:04:06.696Z,1009.95
2023-05-14T00:05:07.100Z,1009.94
2023-05-14T00:06:07.970Z,1009.93
2023-05-14T00:07:08.835Z,1009.93
2023-05-14T00:08:09.710Z,1009.93
2023-05-14T00:09:10.598Z,1009.93
2023-05-14T00:10:11.482Z,1009.93
2023-05-14T00:11:12.342Z,1009.94
2023-05-14T00:12:13.248Z,1009.93
2023-05-14T00:13:14.125Z,1009.92
2023-05-14T00:14:14.990Z,1009.92
2023-05-14T00:15:15.872Z,1009.91
2023-05-14T00:16:16.778Z,1009.91
2023-05-14T00:17:17.636Z,1009.91
2023-05-14T00:18:18.523Z,1009.90
2023-05-14T00:19:19.397Z,1009.90
2023-05-14T00:20:20.394Z,1009.89
2023-05-14T00:21:21.254Z,1009.88
2023-05-14T00:22:22.115Z,1009.87
2023-05-14T00:23:23.037Z,1009.86
2023-05-14T00:24:23.891Z,1009.86
2023-05-14T00:25:24.757Z,1009.85
2023-05-14T00:26:25.625Z,1009.85
2023-05-14T00:27:26.515Z,1009.83
2023-05-14T00:28:27.513Z,1009.82
2023-05-14T00:29:27.892Z,1009.80
2023-05-14T00:30:28.775Z,1009.79
2023-05-14T00:31:29.699Z,1009.78
2023-05-14T00:32:30.588Z,1009.77
2023-05-14T00:33:31.444Z,1009.77
2023-05-14T00:34:32.318Z,1009.77
2023-05-14T00:35:33.216Z,1009.77
2023-05-14T00:36:34.080Z,1009.77
2023-05-14T00:37:34.940Z,1009.78
2023-05-14T00:38:35.839Z,1009.78
2023-05-14T00:39:36.707Z,1009.78
2023-05-14T00:40:37.588Z,1009.79
2023-05-14T00:41:38.448Z,1009.79
2023-05-14T00:42:39.349Z,1009.79
2023-05-14T00:43:40.203Z,1009.80
2023-05-14T00:44:41.097Z,1009.79
2023-05-14T00:45:42.004Z,1009.79
2023-05-14T00:46:42.961Z,1009.78
2023-05-14T00:47:43.861Z,1009.77
2023-05-14T00:48:44.755Z,1009.76
2023-05-14T00:49:45.626Z,1009.75
2023-05-14T00:50:46.522Z,1009.74
2023-05-14T00:51:47.397Z,1009.73
2023-05-14T00:52:48.305Z,1009.72
2023-05-14T00:53:49.165Z,1009.72
2023-05-14T00:54:50.039Z,1009.70
2023-05-14T00:55:50.936Z,1009.69
2023-05-14T00:56:51.825Z,1009.67
2023-05-14T00:57:52.716Z,1009.66
2023-05-14T00:58:53.571Z,1009.65
2023-05-14T00:59:54.442Z,1009.64
2023-05-14T01:00:55.404Z,1009.63
2023-05-14T01:01:56.276Z,1009.63
2023-05-14T01:02:57.201Z,1009.63
2023-05-14T01:03:58.291Z,1009.63
2023-05-14T01:04:58.714Z,1009.63
2023-05-14T01:05:59.602Z,1009.62
2023-05-14T01:07:00.503Z,1009.62
2023-05-14T01:08:01.394Z,1009.62
2023-05-14T01:09:02.256Z,1009.62
2023-05-14T01:10:03.140Z,1009.63
2023-05-14T01:11:04.018Z,1009.64
2023-05-14T01:12:04.907Z,1009.64
2023-05-14T01:13:05.784Z,1009.63
2023-05-14T01:14:06.651Z,1009.63
2023-05-14T01:15:07.507Z,1009.63
2023-05-14T01:16:08.529Z,1009.63
2023-05-14T01:17:09.375Z,1009.64
2023-05-14T01:18:10.281Z,1009.65
2023-05-14T01:19:11.187Z,1009.66
2023-05-14T01:20:12.215Z,1009.66
2023-05-14T01:21:12.644Z,1009.65
2023-05-14T01:22:13.529Z,1009.64
2023-05-14T01:23:14.390Z,1009.62
2023-05-14T01:24:15.339Z,1009.60
2023-05-14T01:25:16.274Z,1009.58
2023-05-14T01:26:17.139Z,1009.57
2023-05-14T01:27:18.046Z,1009.57
2023-05-14T01:28:18.918Z,1009.55
2023-05-14T01:29:19.791Z,1009.54
2023-05-14T01:30:20.796Z,1009.53
2023-05-14T01:31:21.676Z,1009.51
2023-05-14T01:32:22.642Z,1009.49
2023-05-14T01:33:23.523Z,1009.47
2023-05-14T01:34:24.385Z,1009.46
2023-05-14T01:35:25.278Z,1009.45
2023-05-14T01:36:26.142Z,1009.44
2023-05-14T01:37:27.030Z,1009.44
2023-05-14T01:38:27.912Z,1009.44
2023-05-14T01:39:28.798Z,1009.44
2023-05-14T01:40:29.677Z,1009.43
2023-05-14T01:41:30.557Z,1009.43
2023-05-14T01:42:31.454Z,1009.43
2023-05-14T01:43:32.404Z,1009.43
2023-05-14T01:44:33.291Z,1009.43
2023-05-14T01:45:34.155Z,1009.44
2023-05-14T01:46:35.077Z,1009.44
2023-05-14T01:47:35.986Z,1009.45
2023-05-14T01:48:36.870Z,1009.46
2023-05-14T01:49:37.764Z,1009.47
2023-05-14T01:50:38.603Z,1009.47
2023-05-14T01:51:39.523Z,1009.46
2023-05-14T01:52:40.408Z,1009.45
2023-05-14T01:53:41.288Z,1009.43
2023-05-14T01:54:42.147Z,1009.41
2023-05-14T01:55:43.050Z,1009.40
2023-05-14T01:56:43.926Z,1009.38
2023-05-14T01:57:44.803Z,1009.37
2023-05-14T01:58:45.688Z,1009.37
2023-05-14T01:59:46.532Z,1009.36
2023-05-14T02:00:47.503Z,1009.36
2023-05-14T02:01:48.442Z,1009.36
2023-05-14T02:02:49.287Z,1009.37
2023-05-14T02:03:50.224Z,1009.36
2023-05-14T02:04:51.125Z,1009.36
2023-05-14T02:05:52.009Z,1009.36
2023-05-14T02:06:52.913Z,1009.34
2023-05-14T02:07:53.789Z,1009.33
2023-05-14T02:08:54.685Z,1009.32
2023-05-14T02:09:55.535Z,1009.30
2023-05-14T02:10:56.441Z,1009.28
2023-05-14T02:11:57.328Z,1009.26
2023-05-14T02:12:58.194Z,1009.26
2023-05-14T02:13:59.097Z,1009.25
2023-05-14T02:14:59.938Z,1009.25
2023-05-14T02:16:00.852Z,1009.23
2023-05-14T02:17:01.748Z,1009.22
2023-05-14T02:18:02.688Z,1009.22
2023-05-14T02:19:03.682Z,1009.21
2023-05-14T02:20:04.091Z,1009.20
2023-05-14T02:21:04.943Z,1009.20
2023-05-14T02:22:05.810Z,1009.20
2023-05-14T02:23:06.677Z,1009.19
2023-05-14T02:24:07.570Z,1009.19
2023-05-14T02:25:08.517Z,1009.20
2023-05-14T02:26:09.457Z,1009.20
2023-05-14T02:27:10.312Z,1009.20
2023-05-14T02:28:11.224Z,1009.20
2023-05-14T02:29:12.100Z,1009.19
2023-05-14T02:30:12.937Z,1009.18
2023-05-14T02:31:13.856Z,1009.16
2023-05-14T02:32:14.733Z,1009.13
2023-05-14T02:33:15.638Z,1009.11
2023-05-14T02:34:16.543Z,1009.09
2023-05-14T02:35:17.394Z,1009.07
2023-05-14T02:36:18.272Z,1009.06
2023-05-14T02:37:19.156Z,1009.05
2023-05-14T02:38:20.094Z,1009.04
2023-05-14T02:39:20.964Z,1009.04
2023-05-14T02:40:21.947Z,1009.05
2023-05-14T02:41:22.437Z,1009.05
2023-05-14T02:42:23.356Z,1009.06
2023-05-14T02:43:24.226Z,1009.06
2023-05-14T02:44:25.122Z,1009.07
2023-05-14T02:45:25.959Z,1009.07
2023-05-14T02:46:26.895Z,1009.07
2023-05-14T02:47:27.904Z,1009.07
2023-05-14T02:48:28.795Z,1009.07
2023-05-14T02:49:29.674Z,1009.08
2023-05-14T02:50:30.565Z,1009.08
2023-05-14T02:51:31.449Z,1009.07
2023-05-14T02:52:32.355Z,1009.05
2023-05-14T02:53:33.274Z,1009.03
2023-05-14T02:54:34.123Z,1009.01
2023-05-14T02:55:35.037Z,1008.99
2023-05-14T02:56:35.913Z,1008.97
2023-05-14T02:57:36.775Z,1008.95
2023-05-14T02:58:37.649Z,1008.94
2023-05-14T02:59:38.555Z,1008.93
2023-05-14T03:00:39.168Z,1008.94
2023-05-14T03:01:40.019Z,1008.95
2023-05-14T03:02:41.037Z,1008.96
2023-05-14T03:03:41.443Z,1008.97
2023-05-14T03:04:42.334Z,1008.97
2023-05-14T03:05:43.211Z,1008.97
2023-05-14T03:06:44.126Z,1008.96
2023-05-14T03:07:45.085Z,1008.95
2023-05-14T03:08:45.965Z,1008.92
2023-05-14T03:09:46.877Z,1008.89
2023-05-14T03:10:47.730Z,1008.86
2023-05-14T03:11:48.629Z,1008.85
2023-05-14T03:12:49.517Z,1008.87
2023-05-14T03:13:50.362Z,1008.89
2023-05-14T03:14:51.297Z,1008.91
2023-05-14T03:15:52.135Z,1008.92
2023-05-14T03:16:53.088Z,1008.94
2023-05-14T03:17:53.995Z,1008.97
2023-05-14T03:18:54.934Z,1008.98
2023-05-14T03:19:55.775Z,1008.98
2023-05-14T03:20:56.650Z,1008.97
2023-05-14T03:21:57.583Z,1008.97
2023-05-14T03:22:58.405Z,1008.96
2023-05-14T03:23:59.283Z,1008.96
2023-05-14T03:25:00.163Z,1008.95
2023-05-14T03:26:01.018Z,1008.95
2023-05-14T03:27:01.903Z,1008.97
2023-05-14T03:28:02.784Z,1008.97
2023-05-14T03:29:03.664Z,1008.96
2023-05-14T03:30:04.547Z,1008.94
2023-05-14T03:31:05.483Z,1008.91
2023-05-14T03:32:06.364Z,1008.91
2023-05-14T03:33:07.308Z,1008.92
2023-05-14T03:34:08.193Z,1008.94
2023-05-14T03:35:09.093Z,1008.95
2023-05-14T03:36:09.988Z,1008.93
2023-05-14T03:37:10.839Z,1008.90
2023-05-14T03:38:11.710Z,1008.88
2023-05-14T03:39:12.566Z,1008.89
2023-05-14T03:40:13.458Z,1008.91
2023-05-14T03:41:14.363Z,1008.93
2023-05-14T03:42:15.358Z,1008.94
2023-05-14T03:43:16.194Z,1008.94
2023-05-14T03:44:17.076Z,1008.95
2023-05-14T03:45:17.969Z,1008.96
2023-05-14T03:46:18.835Z,1008.98
2023-05-14T03:47:19.714Z,1009.01
2023-05-14T03:48:20.677Z,1009.03
2023-05-14T03:49:21.076Z,1009.04
2023-05-14T03:50:22.210Z,1009.04
2023-05-14T03:51:22.680Z,1009.03
2023-05-14T03:52:23.570Z,1009.04
2023-05-14T03:53:24.441Z,1009.03
2023-05-14T03:54:25.304Z,1009.03
2023-05-14T03:55:26.183Z,1009.01
2023-05-14T03:56:27.037Z,1009.00
2023-05-14T03:57:27.952Z,1008.99
2023-05-14T03:58:28.837Z,1008.99
2023-05-14T03:59:29.739Z,1008.99
2023-05-14T04:00:30.692Z,1008.99
2023-05-14T04:01:31.535Z,1008.99
2023-05-14T04:02:32.441Z,1008.99
2023-05-14T04:03:33.474Z,1008.99
2023-05-14T04:04:33.895Z,1008.98
2023-05-14T04:05:34.776Z,1009.01
2023-05-14T04:06:35.638Z,1009.02
2023-05-14T04:07:36.492Z,1009.03
2023-05-14T04:08:37.384Z,1009.03
2023-05-14T04:09:38.238Z,1009.02
2023-05-14T04:10:39.130Z,1009.02
2023-05-14T04:11:40.054Z,1009.03
2023-05-14T04:12:40.929Z,1009.04
2023-05-14T04:13:41.822Z,1009.03
2023-05-14T04:14:42.704Z,1009.03
2023-05-14T04:15:43.567Z,1009.02
2023-05-14T04:16:44.488Z,1009.01
2023-05-14T04:17:45.368Z,1009.00
2023-05-14T04:18:46.301Z,1008.99
2023-05-14T04:19:47.203Z,1008.99
2023-05-14T04:20:48.121Z,1008.98
2023-05-14T04:21:48.948Z,1008.97
2023-05-14T04:22:49.879Z,1008.97
2023-05-14T04:23:50.757Z,1008.95
2023-05-14T04:24:51.610Z,1008.94
2023-05-14T04:25:52.483Z,1008.93
2023-05-14T04:26:53.355Z,1008.93
2023-05-14T04:27:54.276Z,1008.93
2023-05-14T04:28:55.139Z,1008.92
2023-05-14T04:29:56.006Z,1008.91
2023-05-14T04:30:56.902Z,1008.89
2023-05-14T04:31:57.795Z,1008.88
2023-05-14T04:32:58.672Z,1008.86
2023-05-14T04:34:07.029Z,1008.86
2023-05-14T04:35:00.405Z,1008.87
2023-05-14T04:36:01.256Z,1008.87
2023-05-14T04:37:02.137Z,1008.86
2023-05-14T04:38:03.010Z,1008.86
2023-05-14T04:39:03.872Z,1008.86
2023-05-14T04:40:04.761Z,1008.86
2023-05-14T04:41:05.625Z,1008.87
2023-05-14T04:42:06.517Z,1008.89
2023-05-14T04:43:07.381Z,1008.90
2023-05-14T04:44:08.275Z,1008.90
2023-05-14T04:45:09.148Z,1008.90
2023-05-14T04:46:10.074Z,1008.90
2023-05-14T04:47:10.923Z,1008.91
2023-05-14T04:48:11.835Z,1008.93
2023-05-14T04:49:12.687Z,1008.95
2023-05-14T04:50:13.558Z,1008.97
2023-05-14T04:51:14.449Z,1008.98
2023-05-14T04:52:15.321Z,1008.98
2023-05-14T04:53:16.190Z,1008.99
2023-05-14T04:54:17.093Z,1008.98
2023-05-14T04:55:17.932Z,1008.96
2023-05-14T04:56:18.813Z,1008.96
2023-05-14T04:57:19.693Z,1008.95
2023-05-14T04:58:20.557Z,1008.95
2023-05-14T04:59:21.455Z,1008.96
2023-05-14T05:00:22.786Z,1008.96
2023-05-14T05:01:22.982Z,1008.97
2023-05-14T05:02:23.854Z,1008.96
2023-05-14T05:03:24.807Z,1008.94
2023-05-14T05:04:25.293Z,1008.93
2023-05-14T05:05:26.210Z,1008.92
2023-05-14T05:06:27.080Z,1008.93
2023-05-14T05:07:27.933Z,1008.94
2023-05-14T05:08:28.821Z,1008.94
2023-05-14T05:09:29.699Z,1008.94
2023-05-14T05:10:30.588Z,1008.95
2023-05-14T05:11:31.484Z,1008.96
2023-05-14T05:12:32.343Z,1008.97
2023-05-14T05:13:33.213Z,1008.97
2023-05-14T05:14:34.104Z,1008.98
2023-05-14T05:15:35.014Z,1008.99
2023-05-14T05:16:35.969Z,1008.99
2023-05-14T05:17:36.862Z,1008.99
2023-05-14T05:18:37.779Z,1009.00
2023-05-14T05:19:43.818Z,1008.99
2023-05-14T05:20:40.436Z,1008.99
2023-05-14T05:21:40.318Z,1009.00
2023-05-14T05:22:41.206Z,1009.01
2023-05-14T05:23:42.106Z,1009.01
2023-05-14T05:24:42.969Z,1009.01
2023-05-14T05:25:43.835Z,1009.01
2023-05-14T05:26:44.727Z,1009.00
2023-05-14T05:27:45.614Z,1008.99
2023-05-14T05:28:46.515Z,1008.99
2023-05-14T05:29:47.349Z,1008.99
2023-05-14T05:30:48.229Z,1009.02
2023-05-14T05:31:49.326Z,1009.04
2023-05-14T05:32:49.820Z,1009.05
2023-05-14T05:33:50.705Z,1009.07
2023-05-14T05:34:51.593Z,1009.09
2023-05-14T05:35:52.508Z,1009.10
2023-05-14T05:36:53.362Z,1009.09
2023-05-14T05:37:54.240Z,1009.09
2023-05-14T05:38:55.117Z,1009.10
2023-05-14T05:39:55.984Z,1009.10
2023-05-14T05:40:56.863Z,1009.11
2023-05-14T05:41:57.727Z,1009.11
2023-05-14T05:42:58.593Z,1009.11
2023-05-14T05:43:59.551Z,1009.10
2023-05-14T05:45:00.469Z,1009.09
2023-05-14T05:46:01.315Z,1009.08
2023-05-14T05:47:02.287Z,1009.08
2023-05-14T05:48:02.792Z,1009.10
2023-05-14T05:49:03.646Z,1009.11
2023-05-14T05:50:04.603Z,1009.12
2023-05-14T05:51:05.526Z,1009.13
2023-05-14T05:52:06.347Z,1009.13
2023-05-14T05:53:07.226Z,1009.12
2023-05-14T05:54:08.094Z,1009.12
2023-05-14T05:55:08.960Z,1009.12
2023-05-14T05:56:09.849Z,1009.11
2023-05-14T05:57:10.747Z,1009.10
2023-05-14T05:58:11.606Z,1009.10
2023-05-14T05:59:12.490Z,1009.10
2023-05-14T06:00:13.405Z,1009.10
2023-05-14T06:01:14.281Z,1009.10
2023-05-14T06:02:15.185Z,1009.11
2023-05-14T06:03:16.193Z,1009.11
2023-05-14T06:04:17.068Z,1009.12
2023-05-14T06:05:17.956Z,1009.12
2023-05-14T06:06:18.817Z,1009.12
2023-05-14T06:07:19.673Z,1009.14
2023-05-14T06:08:20.545Z,1009.15
2023-05-14T06:09:21.406Z,1009.16
2023-05-14T06:10:22.628Z,1009.16
2023-05-14T06:11:23.134Z,1009.16
2023-05-14T06:12:23.986Z,1009.15
2023-05-14T06:13:24.862Z,1009.14
2023-05-14T06:14:25.742Z,1009.14
2023-05-14T06:15:26.660Z,1009.15
2023-05-14T06:16:27.518Z,1009.15
2023-05-14T06:17:28.534Z,1009.16
2023-05-14T06:18:28.915Z,1009.17
2023-05-14T06:19:29.760Z,1009.18
2023-05-14T06:20:30.639Z,1009.18
2023-05-14T06:21:31.538Z,1009.19
2023-05-14T06:22:32.426Z,1009.19
2023-05-14T06:23:33.304Z,1009.20
2023-05-14T06:24:34.137Z,1009.21
2023-05-14T06:25:35.077Z,1009.21
2023-05-14T06:26:35.944Z,1009.20
2023-05-14T06:27:36.799Z,1009.20
2023-05-14T06:28:37.653Z,1009.20
2023-05-14T06:29:38.534Z,1009.20
2023-05-14T06:30:39.386Z,1009.21
2023-05-14T06:31:40.311Z,1009.21
2023-05-14T06:32:41.243Z,1009.21
2023-05-14T06:33:42.137Z,1009.23
2023-05-14T06:34:42.993Z,1009.24
2023-05-14T06:35:43.862Z,1009.25
2023-05-14T06:36:44.731Z,1009.26
2023-05-14T06:37:45.604Z,1009.25
2023-05-14T06:38:46.467Z,1009.25
2023-05-14T06:39:47.333Z,1009.23
2023-05-14T06:40:48.201Z,1009.22
2023-05-14T06:41:49.073Z,1009.21
2023-05-14T06:42:49.954Z,1009.20
2023-05-14T06:43:50.823Z,1009.21
2023-05-14T06:44:51.699Z,1009.21
2023-05-14T06:45:52.606Z,1009.23
2023-05-14T06:46:53.468Z,1009.21
2023-05-14T06:47:54.409Z,1009.20
2023-05-14T06:48:56.230Z,1009.18
2023-05-14T06:49:55.913Z,1009.19
2023-05-14T06:50:56.759Z,1009.18
2023-05-14T06:51:57.632Z,1009.18
2023-05-14T06:52:58.510Z,1009.19
2023-05-14T06:53:59.388Z,1009.19
2023-05-14T06:55:00.278Z,1009.18
2023-05-14T06:56:01.144Z,1009.19
2023-05-14T06:57:02.005Z,1009.17
2023-05-14T06:58:02.865Z,1009.14
2023-05-14T06:59:03.745Z,1009.15
2023-05-14T07:00:04.617Z,1009.15
2023-05-14T07:01:05.519Z,1009.15
2023-05-14T07:02:06.370Z,1009.15
2023-05-14T07:03:07.344Z,1009.14
2023-05-14T07:04:08.329Z,1009.13
2023-05-14T07:05:09.218Z,1009.15
2023-05-14T07:06:12.529Z,1009.13
2023-05-14T07:07:10.892Z,1009.13
2023-05-14T07:08:11.765Z,1009.13
2023-05-14T07:09:12.650Z,1009.10
2023-05-14T07:10:13.540Z,1009.10
2023-05-14T07:11:14.413Z,1009.11
2023-05-14T07:12:15.264Z,1009.11
2023-05-14T07:13:16.139Z,1009.12
2023-05-14T07:14:17.025Z,1009.10
2023-05-14T07:15:17.937Z,1009.08
2023-05-14T07:16:18.781Z,1009.09
2023-05-14T07:17:19.699Z,1009.09
2023-05-14T07:18:20.614Z,1009.09
2023-05-14T07:19:21.473Z,1009.06
2023-05-14T07:20:22.576Z,1009.06
2023-05-14T07:21:23.173Z,1009.06
2023-05-14T07:22:24.052Z,1009.04
2023-05-14T07:23:24.919Z,1009.04
2023-05-14T07:24:25.781Z,1009.03
2023-05-14T07:25:26.670Z,1009.03
2023-05-14T07:26:27.549Z,1009.05
2023-05-14T07:27:28.419Z,1009.06
2023-05-14T07:28:29.297Z,1009.04
2023-05-14T07:29:30.179Z,1009.02
2023-05-14T07:30:31.058Z,1009.06
2023-05-14T07:31:31.967Z,1009.01
2023-05-14T07:32:32.833Z,1009.00
2023-05-14T07:33:33.699Z,1009.00
2023-05-14T07:34:34.566Z,1008.96
2023-05-14T07:35:35.436Z,1008.99
2023-05-14T07:36:36.323Z,1008.98
2023-05-14T07:37:37.218Z,1008.98
2023-05-14T07:38:38.083Z,1008.98
2023-05-14T07:39:38.940Z,1008.95
2023-05-14T07:40:39.824Z,1008.96
2023-05-14T07:41:40.696Z,1008.96
2023-05-14T07:42:41.576Z,1008.97
2023-05-14T07:43:42.438Z,1008.96
2023-05-14T07:44:43.305Z,1008.95
2023-05-14T07:45:44.171Z,1008.93
2023-05-14T07:46:45.079Z,1008.95
2023-05-14T07:47:46.004Z,1008.92
2023-05-14T07:48:46.880Z,1008.88
2023-05-14T07:49:47.736Z,1008.89
2023-05-14T07:50:48.609Z,1008.91
2023-05-14T07:51:49.477Z,1008.89
2023-05-14T07:52:50.499Z,1008.91
2023-05-14T07:53:51.405Z,1008.88
2023-05-14T07:54:52.330Z,1008.88
2023-05-14T07:55:53.177Z,1008.89
2023-05-14T07:56:54.058Z,1008.91
2023-05-14T07:57:54.956Z,1008.88
2023-05-14T07:58:55.837Z,1008.88
2023-05-14T07:59:56.704Z,1008.89
2023-05-14T08:00:57.586Z,1008.88
2023-05-14T08:01:58.519Z,1008.87
2023-05-14T08:02:59.635Z,1008.94
2023-05-14T08:04:00.328Z,1008.90
2023-05-14T08:05:00.800Z,1008.87
2023-05-14T08:06:01.686Z,1008.85
2023-05-14T08:07:02.546Z,1008.85
2023-05-14T08:08:03.450Z,1008.86
2023-05-14T08:09:04.291Z,1008.87
2023-05-14T08:10:05.174Z,1008.85
2023-05-14T08:11:06.135Z,1008.85
2023-05-14T08:12:06.996Z,1008.86
2023-05-14T08:13:07.879Z,1008.81
2023-05-14T08:14:08.798Z,1008.84
2023-05-14T08:15:09.626Z,1008.84
2023-05-14T08:16:10.531Z,1008.83
2023-05-14T08:17:11.517Z,1008.84
2023-05-14T08:18:12.080Z,1008.82
2023-05-14T08:19:12.687Z,1008.85
2023-05-14T08:20:13.165Z,1008.82
2023-05-14T08:21:14.018Z,1008.85
2023-05-14T08:22:14.882Z,1008.82
2023-05-14T08:23:15.808Z,1008.83
2023-05-14T08:24:16.643Z,1008.84
2023-05-14T08:25:17.521Z,1008.80
2023-05-14T08:26:18.376Z,1008.82
2023-05-14T08:27:19.274Z,1008.86
2023-05-14T08:28:20.139Z,1008.87
2023-05-14T08:29:21.010Z,1008.85
2023-05-14T08:30:22.174Z,1008.86
2023-05-14T08:31:22.862Z,1008.86
2023-05-14T08:32:24.271Z,1008.85
2023-05-14T08:33:24.272Z,1008.86
2023-05-14T08:34:25.164Z,1008.83
2023-05-14T08:35:26.016Z,1008.81
2023-05-14T08:36:26.892Z,1008.80
2023-05-14T08:37:27.759Z,1008.79
2023-05-14T08:38:28.659Z,1008.80
2023-05-14T08:39:29.588Z,1008.83
2023-05-14T08:40:30.446Z,1008.81
2023-05-14T08:41:31.308Z,1008.81
2023-05-14T08:42:32.182Z,1008.80
2023-05-14T08:43:33.063Z,1008.80
2023-05-14T08:44:33.933Z,1008.79
2023-05-14T08:45:34.821Z,1008.79
2023-05-14T08:46:35.669Z,1008.78
2023-05-14T08:47:36.583Z,1008.78
2023-05-14T08:48:37.502Z,1008.75
2023-05-14T08:49:38.371Z,1008.73
2023-05-14T08:50:40.037Z,1008.74
2023-05-14T08:51:39.908Z,1008.70
2023-05-14T08:52:40.765Z,1008.67
2023-05-14T08:53:41.646Z,1008.67
2023-05-14T08:54:42.519Z,1008.64
2023-05-14T08:55:43.392Z,1008.69
2023-05-14T08:56:44.254Z,1008.67
2023-05-14T08:57:45.192Z,1008.69
2023-05-14T08:58:46.031Z,1008.68
2023-05-14T08:59:46.891Z,1008.67
2023-05-14T09:00:47.773Z,1008.64
2023-05-14T09:01:48.705Z,1008.65
2023-05-14T09:02:49.603Z,1008.66
2023-05-14T09:03:50.495Z,1008.66
2023-05-14T09:04:51.364Z,1008.64
2023-05-14T09:05:52.225Z,1008.60
2023-05-14T09:06:53.074Z,1008.62
2023-05-14T09:07:53.945Z,1008.66
2023-05-14T09:08:54.860Z,1008.61
2023-05-14T09:09:55.734Z,1008.59
2023-05-14T09:10:56.733Z,1008.58
2023-05-14T09:11:57.560Z,1008.56
2023-05-14T09:12:58.531Z,1008.55
2023-05-14T09:13:59.346Z,1008.52
2023-05-14T09:15:00.230Z,1008.51
2023-05-14T09:16:01.131Z,1008.50
2023-05-14T09:17:01.995Z,1008.52
2023-05-14T09:18:02.906Z,1008.57
2023-05-14T09:19:03.402Z,1008.53
2023-05-14T09:20:04.334Z,1008.54
2023-05-14T09:21:05.247Z,1008.54
2023-05-14T09:22:06.078Z,1008.53
2023-05-14T09:23:07.008Z,1008.48
2023-05-14T09:24:07.846Z,1008.47
2023-05-14T09:25:08.722Z,1008.45
2023-05-14T09:26:09.625Z,1008.43
2023-05-14T09:27:10.542Z,1008.43
2023-05-14T09:28:11.432Z,1008.46
2023-05-14T09:29:12.282Z,1008.45
2023-05-14T09:30:13.212Z,1008.44
2023-05-14T09:31:14.062Z,1008.46
2023-05-14T09:32:14.954Z,1008.45
2023-05-14T09:33:15.824Z,1008.43
2023-05-14T09:34:16.694Z,1008.44
2023-05-14T09:35:18.005Z,1008.46
2023-05-14T09:36:18.499Z,1008.45
2023-05-14T09:37:19.333Z,1008.39
2023-05-14T09:38:20.281Z,1008.42
2023-05-14T09:39:21.092Z,1008.43
2023-05-14T09:40:22.072Z,1008.42
2023-05-14T09:41:22.574Z,1008.43
2023-05-14T09:42:23.442Z,1008.41
2023-05-14T09:43:24.332Z,1008.41
2023-05-14T09:44:25.219Z,1008.40
2023-05-14T09:45:26.129Z,1008.36
2023-05-14T09:46:26.972Z,1008.37
2023-05-14T09:47:27.952Z,1008.37
2023-05-14T09:48:28.422Z,1008.35
2023-05-14T09:49:29.276Z,1008.36
2023-05-14T09:50:30.157Z,1008.36
2023-05-14T09:51:31.014Z,1008.34
2023-05-14T09:52:31.885Z,1008.34
2023-05-14T09:53:32.761Z,1008.30
2023-05-14T09:54:33.698Z,1008.30
2023-05-14T09:55:34.540Z,1008.30
2023-05-14T09:56:35.428Z,1008.31
2023-05-14T09:57:36.333Z,1008.29
2023-05-14T09:58:37.201Z,1008.30
2023-05-14T09:59:38.104Z,1008.28
2023-05-14T10:00:38.948Z,1008.26
2023-05-14T10:01:39.859Z,1008.27
2023-05-14T10:02:40.801Z,1008.25
2023-05-14T10:03:41.636Z,1008.25
2023-05-14T10:04:42.613Z,1008.25
2023-05-14T10:05:43.544Z,1008.23
2023-05-14T10:06:44.363Z,1008.19
2023-05-14T10:07:45.279Z,1008.17
2023-05-14T10:08:46.140Z,1008.16
2023-05-14T10:09:47.036Z,1008.12
2023-05-14T10:10:47.902Z,1008.11
2023-05-14T10:11:49.544Z,1008.11
2023-05-14T10:12:49.429Z,1008.09
2023-05-14T10:13:50.326Z,1008.11
2023-05-14T10:14:51.194Z,1008.12
2023-05-14T10:15:52.071Z,1008.12
2023-05-14T10:16:52.945Z,1008.12
2023-05-14T10:17:53.825Z,1008.12
2023-05-14T10:18:57.158Z,1008.12
2023-05-14T10:19:55.433Z,1008.10
2023-05-14T10:20:56.269Z,1008.06
2023-05-14T10:21:57.122Z,1008.04
2023-05-14T10:22:57.996Z,1008.03
2023-05-14T10:23:58.860Z,1008.01
2023-05-14T10:24:59.735Z,1007.99
2023-05-14T10:26:00.614Z,1008.01
2023-05-14T10:27:01.488Z,1008.01
2023-05-14T10:28:02.361Z,1008.00
2023-05-14T10:29:03.229Z,1008.05
2023-05-14T10:30:04.134Z,1007.99
2023-05-14T10:31:05.049Z,1008.04
2023-05-14T10:32:06.025Z,1007.98
2023-05-14T10:33:06.912Z,1007.96
2023-05-14T10:34:07.821Z,1007.95
2023-05-14T10:35:16.226Z,1007.91
2023-05-14T10:36:09.705Z,1007.94
2023-05-14T10:37:10.594Z,1007.91
2023-05-14T10:38:11.477Z,1007.88
2023-05-14T10:39:12.324Z,1007.89
2023-05-14T10:40:13.253Z,1007.86
2023-05-14T10:41:14.159Z,1007.85
2023-05-14T10:42:15.028Z,1007.85
2023-05-14T10:43:15.945Z,1007.84
2023-05-14T10:44:16.830Z,1007.86
2023-05-14T10:45:17.710Z,1007.87
2023-05-14T10:46:18.619Z,1007.90
2023-05-14T10:47:19.477Z,1007.89
2023-05-14T10:48:20.387Z,1007.87
2023-05-14T10:49:36.101Z,1007.92
2023-05-14T10:50:23.394Z,1007.88
2023-05-14T10:51:23.657Z,1007.87
2023-05-14T10:52:23.521Z,1007.82
2023-05-14T10:53:24.418Z,1007.82
2023-05-14T10:54:25.480Z,1007.79
2023-05-14T10:55:25.842Z,1007.74
2023-05-14T10:56:26.720Z,1007.73
2023-05-14T10:57:27.610Z,1007.74
2023-05-14T10:58:28.499Z,1007.71
2023-05-14T10:59:29.384Z,1007.66
2023-05-14T11:00:30.298Z,1007.64
2023-05-14T11:01:31.168Z,1007.62
2023-05-14T11:02:32.157Z,1007.64
2023-05-14T11:03:32.610Z,1007.62
2023-05-14T11:04:33.456Z,1007.60
2023-05-14T11:05:34.312Z,1007.60
2023-05-14T11:06:35.195Z,1007.57
2023-05-14T11:07:36.067Z,1007.59
2023-05-14T11:08:36.926Z,1007.60
2023-05-14T11:09:37.904Z,1007.57
2023-05-14T11:10:38.726Z,1007.64
2023-05-14T11:11:39.593Z,1007.61
2023-05-14T11:12:40.570Z,1007.58
2023-05-14T11:13:41.425Z,1007.59
2023-05-14T11:14:42.296Z,1007.55
2023-05-14T11:15:43.163Z,1007.61
2023-05-14T11:16:44.048Z,1007.56
2023-05-14T11:17:45.076Z,1007.61
2023-05-14T11:18:45.469Z,1007.61
2023-05-14T11:19:46.340Z,1007.58
2023-05-14T11:20:48.080Z,1007.56
2023-05-14T11:21:48.028Z,1007.56
2023-05-14T11:22:48.886Z,1007.54
2023-05-14T11:23:49.915Z,1007.54
2023-05-14T11:24:50.289Z,1007.54
2023-05-14T11:25:51.201Z,1007.57
2023-05-14T11:26:52.067Z,1007.54
2023-05-14T11:27:52.989Z,1007.46
2023-05-14T11:28:53.846Z,1007.50
2023-05-14T11:29:54.717Z,1007.48
2023-05-14T11:30:55.614Z,1007.48
2023-05-14T11:31:56.551Z,1007.46
2023-05-14T11:32:59.254Z,1007.46
2023-05-14T11:33:58.026Z,1007.45
2023-05-14T11:34:58.882Z,1007.43
2023-05-14T11:35:59.784Z,1007.48
2023-05-14T11:37:00.660Z,1007.43
2023-05-14T11:38:01.518Z,1007.42
2023-05-14T11:39:02.431Z,1007.38
2023-05-14T11:40:03.348Z,1007.40
2023-05-14T11:41:04.209Z,1007.40
2023-05-14T11:42:05.075Z,1007.44
2023-05-14T11:43:06.025Z,1007.42
2023-05-14T11:44:09.091Z,1007.43
2023-05-14T11:45:07.552Z,1007.40
2023-05-14T11:46:08.445Z,1007.41
2023-05-14T11:47:09.422Z,1007.38
2023-05-14T11:48:10.363Z,1007.37
2023-05-14T11:49:11.237Z,1007.38
2023-05-14T11:50:12.097Z,1007.36
2023-05-14T11:51:12.984Z,1007.35
2023-05-14T11:52:13.989Z,1007.33
2023-05-14T11:53:14.356Z,1007.32
2023-05-14T11:54:15.268Z,1007.34
2023-05-14T11:55:16.115Z,1007.31
2023-05-14T11:56:16.988Z,1007.28
2023-05-14T11:57:17.932Z,1007.29
2023-05-14T11:58:18.834Z,1007.30
2023-05-14T11:59:19.716Z,1007.30
2023-05-14T12:00:20.628Z,1007.28
2023-05-14T12:01:21.523Z,1007.27
2023-05-14T12:02:22.406Z,1007.29
2023-05-14T12:03:23.696Z,1007.26
2023-05-14T12:04:23.863Z,1007.24
2023-05-14T12:05:24.278Z,1007.22
2023-05-14T12:06:25.152Z,1007.24
2023-05-14T12:07:26.059Z,1007.22
2023-05-14T12:08:26.926Z,1007.21
2023-05-14T12:09:27.811Z,1007.21
2023-05-14T12:10:28.676Z,1007.20
2023-05-14T12:11:29.559Z,1007.19
2023-05-14T12:12:30.474Z,1007.21
2023-05-14T12:13:31.371Z,1007.21
2023-05-14T12:14:32.241Z,1007.19
2023-05-14T12:15:33.133Z,1007.17